sensor_id;sensor_type;location;lat;lon;timestamp;temperature;humidity
26342;DHT22;14054;50.108;8.640;2023-06-14T00:00:42;19.60;87.40
26342;DHT22;14054;50.108;8.640;2023-06-14T00:03:08;19.30;87.20
26342;DHT22;14054;50.108;8.640;2023-06-14T00:05:38;19.50;82.20
26342;DHT22;14054;50.108;8.640;2023-06-14T00:08:08;19.50;82.10
26342;DHT22;14054;50.108;8.640;2023-06-14T00:10:38;19.40;82.30
26342;DHT22;14054;50.108;8.640;2023-06-14T00:13:06;19.50;82.50
26342;DHT22;14054;50.108;8.640;2023-06-14T00:15:35;19.40;83.50
26342;DHT22;14054;50.108;8.640;2023-06-14T00:18:01;19.30;86.50
26342;DHT22;14054;50.108;8.640;2023-06-14T00:20:28;19.10;93.90
26342;DHT22;14054;50.108;8.640;2023-06-14T00:22:54;19.80;93.00
26342;DHT22;14054;50.108;8.640;2023-06-14T00:25:23;19.30;92.40
26342;DHT22;14054;50.108;8.640;2023-06-14T00:27:53;19.40;93.00
26342;DHT22;14054;50.108;8.640;2023-06-14T00:30:19;19.10;94.50
26342;DHT22;14054;50.108;8.640;2023-06-14T00:32:45;19.10;99.00
26342;DHT22;14054;50.108;8.640;2023-06-14T01:49:35;18.50;92.30
26342;DHT22;14054;50.108;8.640;2023-06-14T01:52:01;18.60;82.50
26342;DHT22;14054;50.108;8.640;2023-06-14T01:54:26;18.50;81.50
26342;DHT22;14054;50.108;8.640;2023-06-14T01:56:52;18.50;79.10
26342;DHT22;14054;50.108;8.640;2023-06-14T01:59:18;18.40;85.60
26342;DHT22;14054;50.108;8.640;2023-06-14T02:01:43;18.40;91.20
26342;DHT22;14054;50.108;8.640;2023-06-14T02:04:11;18.60;94.80
26342;DHT22;14054;50.108;8.640;2023-06-14T02:06:37;18.70;91.20
26342;DHT22;14054;50.108;8.640;2023-06-14T02:09:02;18.30;94.00
26342;DHT22;14054;50.108;8.640;2023-06-14T02:11:28;18.40;89.60
26342;DHT22;14054;50.108;8.640;2023-06-14T02:13:54;18.30;88.00
26342;DHT22;14054;50.108;8.640;2023-06-14T02:16:20;18.30;85.60
26342;DHT22;14054;50.108;8.640;2023-06-14T02:18:45;18.20;85.30
26342;DHT22;14054;50.108;8.640;2023-06-14T02:21:11;18.40;84.00
26342;DHT22;14054;50.108;8.640;2023-06-14T02:23:36;18.20;85.90
26342;DHT22;14054;50.108;8.640;2023-06-14T02:26:02;18.30;89.30
26342;DHT22;14054;50.108;8.640;2023-06-14T02:28:28;18.40;88.20
26342;DHT22;14054;50.108;8.640;2023-06-14T02:30:53;18.30;87.50
26342;DHT22;14054;50.108;8.640;2023-06-14T02:33:19;18.30;91.20
26342;DHT22;14054;50.108;8.640;2023-06-14T02:35:45;18.20;92.70
26342;DHT22;14054;50.108;8.640;2023-06-14T02:38:11;17.90;97.50
26342;DHT22;14054;50.108;8.640;2023-06-14T02:40:37;17.80;99.90
26342;DHT22;14054;50.108;8.640;2023-06-14T02:45:30;17.70;99.90
26342;DHT22;14054;50.108;8.640;2023-06-14T02:50:21;17.60;99.90
26342;DHT22;14054;50.108;8.640;2023-06-14T04:06:10;17.20;99.90
26342;DHT22;14054;50.108;8.640;2023-06-14T04:18:28;17.00;99.90
26342;DHT22;14054;50.108;8.640;2023-06-14T04:20:53;17.10;99.90
26342;DHT22;14054;50.108;8.640;2023-06-14T04:23:19;16.90;99.90
26342;DHT22;14054;50.108;8.640;2023-06-14T04:25:45;16.80;99.90
26342;DHT22;14054;50.108;8.640;2023-06-14T04:28:14;17.10;99.90
26342;DHT22;14054;50.108;8.640;2023-06-14T04:30:43;17.10;99.90
26342;DHT22;14054;50.108;8.640;2023-06-14T04:33:08;16.90;99.90
26342;DHT22;14054;50.108;8.640;2023-06-14T04:35:35;17.30;99.90
26342;DHT22;14054;50.108;8.640;2023-06-14T04:38:03;17.00;99.90
26342;DHT22;14054;50.108;8.640;2023-06-14T04:40:35;17.00;99.90
26342;DHT22;14054;50.108;8.640;2023-06-14T04:43:01;17.30;99.90
26342;DHT22;14054;50.108;8.640;2023-06-14T04:45:30;16.90;99.90
26342;DHT22;14054;50.108;8.640;2023-06-14T04:47:58;17.30;99.90
26342;DHT22;14054;50.108;8.640;2023-06-14T04:50:25;17.10;99.90
26342;DHT22;14054;50.108;8.640;2023-06-14T04:52:50;17.20;99.60
26342;DHT22;14054;50.108;8.640;2023-06-14T04:55:17;17.30;99.90
26342;DHT22;14054;50.108;8.640;2023-06-14T04:57:44;17.40;99.90
26342;DHT22;14054;50.108;8.640;2023-06-14T05:00:10;17.40;99.90
26342;DHT22;14054;50.108;8.640;2023-06-14T05:02:36;17.10;99.90
26342;DHT22;14054;50.108;8.640;2023-06-14T05:05:03;17.40;99.90
26342;DHT22;14054;50.108;8.640;2023-06-14T05:07:32;17.40;99.90
26342;DHT22;14054;50.108;8.640;2023-06-14T05:09:59;17.50;99.90
26342;DHT22;14054;50.108;8.640;2023-06-14T05:12:25;17.60;99.90
26342;DHT22;14054;50.108;8.640;2023-06-14T05:14:50;17.60;99.90
26342;DHT22;14054;50.108;8.640;2023-06-14T05:17:16;17.50;99.90
26342;DHT22;14054;50.108;8.640;2023-06-14T05:19:42;17.40;99.90
26342;DHT22;14054;50.108;8.640;2023-06-14T05:22:08;17.50;99.90
26342;DHT22;14054;50.108;8.640;2023-06-14T05:24:33;17.40;99.90
26342;DHT22;14054;50.108;8.640;2023-06-14T05:26:59;17.90;99.90
26342;DHT22;14054;50.108;8.640;2023-06-14T05:29:24;17.40;99.90
26342;DHT22;14054;50.108;8.640;2023-06-14T05:31:50;17.80;99.90
26342;DHT22;14054;50.108;8.640;2023-06-14T05:34:15;17.90;99.90
26342;DHT22;14054;50.108;8.640;2023-06-14T05:36:41;17.70;99.90
26342;DHT22;14054;50.108;8.640;2023-06-14T05:39:06;18.10;99.90
26342;DHT22;14054;50.108;8.640;2023-06-14T05:41:33;17.90;99.90
26342;DHT22;14054;50.108;8.640;2023-06-14T05:43:59;17.90;99.90
26342;DHT22;14054;50.108;8.640;2023-06-14T05:46:25;17.90;99.90
26342;DHT22;14054;50.108;8.640;2023-06-14T05:48:52;17.90;99.10
26342;DHT22;14054;50.108;8.640;2023-06-14T05:51:17;18.10;99.00
26342;DHT22;14054;50.108;8.640;2023-06-14T05:53:46;18.00;99.10
26342;DHT22;14054;50.108;8.640;2023-06-14T05:56:13;17.90;99.60
26342;DHT22;14054;50.108;8.640;2023-06-14T05:58:39;18.10;99.20
26342;DHT22;14054;50.108;8.640;2023-06-14T06:01:04;18.20;99.00
26342;DHT22;14054;50.108;8.640;2023-06-14T06:03:30;18.30;98.60
26342;DHT22;14054;50.108;8.640;2023-06-14T06:05:55;18.30;99.00
26342;DHT22;14054;50.108;8.640;2023-06-14T06:08:21;18.40;98.60
26342;DHT22;14054;50.108;8.640;2023-06-14T06:10:46;18.30;99.10
26342;DHT22;14054;50.108;8.640;2023-06-14T06:13:12;18.40;98.90
26342;DHT22;14054;50.108;8.640;2023-06-14T06:15:37;18.40;99.40
26342;DHT22;14054;50.108;8.640;2023-06-14T06:18:03;18.50;99.00
26342;DHT22;14054;50.108;8.640;2023-06-14T06:20:29;18.60;98.60
26342;DHT22;14054;50.108;8.640;2023-06-14T06:22:57;18.70;97.90
26342;DHT22;14054;50.108;8.640;2023-06-14T06:25:23;18.60;98.40
26342;DHT22;14054;50.108;8.640;2023-06-14T06:27:54;18.60;98.10
26342;DHT22;14054;50.108;8.640;2023-06-14T06:30:20;18.80;98.10
26342;DHT22;14054;50.108;8.640;2023-06-14T06:32:46;18.90;97.40
26342;DHT22;14054;50.108;8.640;2023-06-14T06:35:11;19.00;97.20
26342;DHT22;14054;50.108;8.640;2023-06-14T06:37:38;19.10;96.20
26342;DHT22;14054;50.108;8.640;2023-06-14T06:40:04;19.20;95.90
26342;DHT22;14054;50.108;8.640;2023-06-14T06:42:31;19.40;95.30
26342;DHT22;14054;50.108;8.640;2023-06-14T06:44:57;19.50;94.50
26342;DHT22;14054;50.108;8.640;2023-06-14T06:47:23;19.40;94.20
26342;DHT22;14054;50.108;8.640;2023-06-14T06:49:48;19.50;94.30
26342;DHT22;14054;50.108;8.640;2023-06-14T06:52:14;19.40;94.00
26342;DHT22;14054;50.108;8.640;2023-06-14T06:54:39;19.50;93.70
26342;DHT22;14054;50.108;8.640;2023-06-14T06:57:05;19.60;93.50
26342;DHT22;14054;50.108;8.640;2023-06-14T06:59:31;19.50;93.80
26342;DHT22;14054;50.108;8.640;2023-06-14T07:01:57;19.70;93.60
26342;DHT22;14054;50.108;8.640;2023-06-14T07:04:23;19.80;93.60
26342;DHT22;14054;50.108;8.640;2023-06-14T07:06:48;20.00;93.40
26342;DHT22;14054;50.108;8.640;2023-06-14T07:09:14;20.20;92.70
26342;DHT22;14054;50.108;8.640;2023-06-14T07:11:42;20.10;92.50
26342;DHT22;14054;50.108;8.640;2023-06-14T07:14:08;20.30;92.20
26342;DHT22;14054;50.108;8.640;2023-06-14T07:16:34;20.20;92.00
26342;DHT22;14054;50.108;8.640;2023-06-14T07:19:02;20.30;91.60
26342;DHT22;14054;50.108;8.640;2023-06-14T07:21:28;20.40;91.60
26342;DHT22;14054;50.108;8.640;2023-06-14T07:23:54;20.40;91.60
26342;DHT22;14054;50.108;8.640;2023-06-14T07:26:20;20.20;91.60
26342;DHT22;14054;50.108;8.640;2023-06-14T07:28:46;20.60;90.20
26342;DHT22;14054;50.108;8.640;2023-06-14T07:31:13;20.50;88.90
26342;DHT22;14054;50.108;8.640;2023-06-14T07:33:39;20.60;88.80
26342;DHT22;14054;50.108;8.640;2023-06-14T07:36:04;20.90;87.40
26342;DHT22;14054;50.108;8.640;2023-06-14T07:38:30;21.00;86.00
26342;DHT22;14054;50.108;8.640;2023-06-14T07:40:56;21.10;85.10
26342;DHT22;14054;50.108;8.640;2023-06-14T07:43:21;21.10;84.10
26342;DHT22;14054;50.108;8.640;2023-06-14T07:45:47;21.10;83.40
26342;DHT22;14054;50.108;8.640;2023-06-14T07:48:12;21.20;83.70
26342;DHT22;14054;50.108;8.640;2023-06-14T07:50:38;21.10;84.30
26342;DHT22;14054;50.108;8.640;2023-06-14T07:53:03;21.50;84.00
26342;DHT22;14054;50.108;8.640;2023-06-14T07:55:29;21.60;83.40
26342;DHT22;14054;50.108;8.640;2023-06-14T07:57:54;21.70;83.10
26342;DHT22;14054;50.108;8.640;2023-06-14T08:00:20;21.90;82.70
26342;DHT22;14054;50.108;8.640;2023-06-14T08:02:46;22.00;83.00
26342;DHT22;14054;50.108;8.640;2023-06-14T08:05:12;21.80;82.60
26342;DHT22;14054;50.108;8.640;2023-06-14T08:07:38;21.90;82.30
26342;DHT22;14054;50.108;8.640;2023-06-14T08:10:05;21.90;83.10
26342;DHT22;14054;50.108;8.640;2023-06-14T08:12:32;22.20;83.70
26342;DHT22;14054;50.108;8.640;2023-06-14T08:14:57;22.50;86.60
26342;DHT22;14054;50.108;8.640;2023-06-14T08:17:23;22.50;94.70
26342;DHT22;14054;50.108;8.640;2023-06-14T08:19:49;22.20;94.80
26342;DHT22;14054;50.108;8.640;2023-06-14T08:22:14;22.20;95.70
26342;DHT22;14054;50.108;8.640;2023-06-14T08:24:40;22.10;92.80
26342;DHT22;14054;50.108;8.640;2023-06-14T08:27:06;22.00;92.70
26342;DHT22;14054;50.108;8.640;2023-06-14T08:29:32;22.60;92.90
26342;DHT22;14054;50.108;8.640;2023-06-14T08:31:57;22.10;92.80
26342;DHT22;14054;50.108;8.640;2023-06-14T08:34:23;22.50;92.60
26342;DHT22;14054;50.108;8.640;2023-06-14T08:36:50;22.60;92.10
26342;DHT22;14054;50.108;8.640;2023-06-14T08:39:16;22.60;91.10
26342;DHT22;14054;50.108;8.640;2023-06-14T08:41:44;22.40;91.60
26342;DHT22;14054;50.108;8.640;2023-06-14T08:44:11;22.50;92.30
26342;DHT22;14054;50.108;8.640;2023-06-14T08:46:37;22.30;92.10
26342;DHT22;14054;50.108;8.640;2023-06-14T08:49:04;22.10;91.90
26342;DHT22;14054;50.108;8.640;2023-06-14T08:51:32;22.10;92.00
26342;DHT22;14054;50.108;8.640;2023-06-14T08:54:00;22.10;91.80
26342;DHT22;14054;50.108;8.640;2023-06-14T08:56:27;21.80;91.90
26342;DHT22;14054;50.108;8.640;2023-06-14T08:58:54;22.10;91.60
26342;DHT22;14054;50.108;8.640;2023-06-14T09:01:20;21.90;91.90
26342;DHT22;14054;50.108;8.640;2023-06-14T09:03:48;22.30;91.50
26342;DHT22;14054;50.108;8.640;2023-06-14T09:06:14;21.60;92.20
26342;DHT22;14054;50.108;8.640;2023-06-14T09:08:45;21.80;92.60
26342;DHT22;14054;50.108;8.640;2023-06-14T09:11:12;21.90;91.80
26342;DHT22;14054;50.108;8.640;2023-06-14T09:13:41;21.80;92.30
26342;DHT22;14054;50.108;8.640;2023-06-14T09:16:07;21.40;92.90
26342;DHT22;14054;50.108;8.640;2023-06-14T09:18:43;21.30;93.40
26342;DHT22;14054;50.108;8.640;2023-06-14T09:21:10;21.90;93.20
26342;DHT22;14054;50.108;8.640;2023-06-14T09:23:37;21.90;92.70
26342;DHT22;14054;50.108;8.640;2023-06-14T09:26:29;22.40;92.50
26342;DHT22;14054;50.108;8.640;2023-06-14T09:28:55;22.80;92.40
26342;DHT22;14054;50.108;8.640;2023-06-14T09:31:21;22.80;94.80
26342;DHT22;14054;50.108;8.640;2023-06-14T09:33:50;23.60;94.20
26342;DHT22;14054;50.108;8.640;2023-06-14T09:36:17;23.50;91.10
26342;DHT22;14054;50.108;8.640;2023-06-14T09:41:19;23.50;90.70
26342;DHT22;14054;50.108;8.640;2023-06-14T09:43:46;23.50;90.40
26342;DHT22;14054;50.108;8.640;2023-06-14T09:46:12;23.60;90.70
26342;DHT22;14054;50.108;8.640;2023-06-14T10:00:56;24.40;99.90
26342;DHT22;14054;50.108;8.640;2023-06-14T10:03:28;24.80;99.90
26342;DHT22;14054;50.108;8.640;2023-06-14T10:05:55;24.40;83.50
26342;DHT22;14054;50.108;8.640;2023-06-14T10:08:24;24.40;70.00
26342;DHT22;14054;50.108;8.640;2023-06-14T10:10:55;24.70;67.70
26342;DHT22;14054;50.108;8.640;2023-06-14T10:13:21;24.90;66.60
26342;DHT22;14054;50.108;8.640;2023-06-14T10:16:00;25.00;63.10
26342;DHT22;14054;50.108;8.640;2023-06-14T10:24:02;24.60;61.60
26342;DHT22;14054;50.108;8.640;2023-06-14T10:26:28;24.40;61.40
26342;DHT22;14054;50.108;8.640;2023-06-14T10:29:01;24.90;61.80
26342;DHT22;14054;50.108;8.640;2023-06-14T10:31:46;25.50;60.70
26342;DHT22;14054;50.108;8.640;2023-06-14T10:34:27;25.90;71.60
26342;DHT22;14054;50.108;8.640;2023-06-14T10:37:08;25.60;69.40
26342;DHT22;14054;50.108;8.640;2023-06-14T10:39:43;25.00;69.40
26342;DHT22;14054;50.108;8.640;2023-06-14T10:42:11;24.50;70.30
26342;DHT22;14054;50.108;8.640;2023-06-14T10:47:08;25.70;68.20
26342;DHT22;14054;50.108;8.640;2023-06-14T10:49:45;26.00;59.00
26342;DHT22;14054;50.108;8.640;2023-06-14T10:52:19;25.30;59.10
26342;DHT22;14054;50.108;8.640;2023-06-14T10:57:21;24.40;63.60
26342;DHT22;14054;50.108;8.640;2023-06-14T10:59:47;24.50;62.20
26342;DHT22;14054;50.108;8.640;2023-06-14T11:02:39;24.40;62.70
26342;DHT22;14054;50.108;8.640;2023-06-14T11:05:14;25.20;61.40
26342;DHT22;14054;50.108;8.640;2023-06-14T11:10:43;25.40;60.00
26342;DHT22;14054;50.108;8.640;2023-06-14T11:13:11;25.70;58.90
26342;DHT22;14054;50.108;8.640;2023-06-14T11:15:37;25.40;59.80
26342;DHT22;14054;50.108;8.640;2023-06-14T11:18:05;25.40;60.60
26342;DHT22;14054;50.108;8.640;2023-06-14T11:20:32;24.90;59.70
26342;DHT22;14054;50.108;8.640;2023-06-14T11:22:58;24.70;59.80
26342;DHT22;14054;50.108;8.640;2023-06-14T11:27:50;28.10;53.10
26342;DHT22;14054;50.108;8.640;2023-06-14T11:30:17;27.50;52.40
26342;DHT22;14054;50.108;8.640;2023-06-14T11:32:45;26.90;53.40
26342;DHT22;14054;50.108;8.640;2023-06-14T11:35:11;26.20;55.00
26342;DHT22;14054;50.108;8.640;2023-06-14T11:37:37;25.60;55.30
26342;DHT22;14054;50.108;8.640;2023-06-14T11:40:04;25.30;56.50
26342;DHT22;14054;50.108;8.640;2023-06-14T11:42:33;25.10;57.50
26342;DHT22;14054;50.108;8.640;2023-06-14T11:44:59;25.00;56.60
26342;DHT22;14054;50.108;8.640;2023-06-14T11:47:30;25.40;55.80
26342;DHT22;14054;50.108;8.640;2023-06-14T11:49:58;25.20;56.20
26342;DHT22;14054;50.108;8.640;2023-06-14T11:52:24;27.00;54.20
26342;DHT22;14054;50.108;8.640;2023-06-14T11:54:49;26.70;51.60
26342;DHT22;14054;50.108;8.640;2023-06-14T11:57:17;26.50;52.10
26342;DHT22;14054;50.108;8.640;2023-06-14T11:59:44;25.80;52.80
26342;DHT22;14054;50.108;8.640;2023-06-14T12:02:14;26.30;52.60
26342;DHT22;14054;50.108;8.640;2023-06-14T12:04:43;26.30;52.40
26342;DHT22;14054;50.108;8.640;2023-06-14T12:09:40;25.80;52.80
26342;DHT22;14054;50.108;8.640;2023-06-14T12:12:08;25.20;54.10
26342;DHT22;14054;50.108;8.640;2023-06-14T12:14:34;28.70;50.00
26342;DHT22;14054;50.108;8.640;2023-06-14T12:17:06;29.00;48.10
26342;DHT22;14054;50.108;8.640;2023-06-14T12:19:42;28.00;48.60
26342;DHT22;14054;50.108;8.640;2023-06-14T12:22:10;27.40;50.50
26342;DHT22;14054;50.108;8.640;2023-06-14T12:24:35;26.40;51.20
26342;DHT22;14054;50.108;8.640;2023-06-14T12:27:01;26.00;52.20
26342;DHT22;14054;50.108;8.640;2023-06-14T12:29:30;25.30;53.20
26342;DHT22;14054;50.108;8.640;2023-06-14T12:31:56;25.20;54.10
26342;DHT22;14054;50.108;8.640;2023-06-14T12:34:23;27.70;50.90
26342;DHT22;14054;50.108;8.640;2023-06-14T12:36:50;29.00;47.30
26342;DHT22;14054;50.108;8.640;2023-06-14T12:39:15;29.20;47.30
26342;DHT22;14054;50.108;8.640;2023-06-14T12:41:41;29.50;46.10
26342;DHT22;14054;50.108;8.640;2023-06-14T12:44:07;29.00;46.30
26342;DHT22;14054;50.108;8.640;2023-06-14T12:46:33;28.10;47.30
26342;DHT22;14054;50.108;8.640;2023-06-14T12:49:00;29.30;47.40
26342;DHT22;14054;50.108;8.640;2023-06-14T12:51:26;32.10;41.70
26342;DHT22;14054;50.108;8.640;2023-06-14T12:53:52;31.70;39.60
26342;DHT22;14054;50.108;8.640;2023-06-14T12:56:18;31.00;40.70
26342;DHT22;14054;50.108;8.640;2023-06-14T12:58:43;30.20;42.40
26342;DHT22;14054;50.108;8.640;2023-06-14T13:01:09;29.20;43.30
26342;DHT22;14054;50.108;8.640;2023-06-14T13:03:35;28.20;44.80
26342;DHT22;14054;50.108;8.640;2023-06-14T13:06:01;28.50;45.10
26342;DHT22;14054;50.108;8.640;2023-06-14T13:08:27;28.90;43.20
26342;DHT22;14054;50.108;8.640;2023-06-14T13:10:53;29.40;42.60
26342;DHT22;14054;50.108;8.640;2023-06-14T13:13:19;30.70;40.60
26342;DHT22;14054;50.108;8.640;2023-06-14T13:15:44;30.60;40.60
26342;DHT22;14054;50.108;8.640;2023-06-14T13:18:11;30.30;40.90
26342;DHT22;14054;50.108;8.640;2023-06-14T13:20:38;29.20;42.40
26342;DHT22;14054;50.108;8.640;2023-06-14T13:23:04;28.60;43.60
26342;DHT22;14054;50.108;8.640;2023-06-14T13:25:41;27.80;44.70
26342;DHT22;14054;50.108;8.640;2023-06-14T13:28:07;27.40;45.70
26342;DHT22;14054;50.108;8.640;2023-06-14T13:30:33;27.30;46.40
26342;DHT22;14054;50.108;8.640;2023-06-14T13:32:59;29.80;42.90
26342;DHT22;14054;50.108;8.640;2023-06-14T13:35:25;31.60;39.30
26342;DHT22;14054;50.108;8.640;2023-06-14T13:37:51;32.70;37.00
26342;DHT22;14054;50.108;8.640;2023-06-14T13:40:17;32.10;35.30
26342;DHT22;14054;50.108;8.640;2023-06-14T13:42:42;32.10;36.40
26342;DHT22;14054;50.108;8.640;2023-06-14T13:45:10;32.60;36.40
26342;DHT22;14054;50.108;8.640;2023-06-14T13:47:35;33.80;34.70
26342;DHT22;14054;50.108;8.640;2023-06-14T13:50:01;33.60;33.10
26342;DHT22;14054;50.108;8.640;2023-06-14T13:52:27;33.20;33.40
26342;DHT22;14054;50.108;8.640;2023-06-14T13:54:53;31.50;36.00
26342;DHT22;14054;50.108;8.640;2023-06-14T13:57:19;30.30;38.30
26342;DHT22;14054;50.108;8.640;2023-06-14T13:59:45;29.60;40.00
26342;DHT22;14054;50.108;8.640;2023-06-14T14:02:11;29.40;40.80
26342;DHT22;14054;50.108;8.640;2023-06-14T14:04:37;28.40;41.50
26342;DHT22;14054;50.108;8.640;2023-06-14T14:07:04;28.00;42.90
26342;DHT22;14054;50.108;8.640;2023-06-14T14:09:29;27.40;43.40
26342;DHT22;14054;50.108;8.640;2023-06-14T14:11:56;26.90;45.10
26342;DHT22;14054;50.108;8.640;2023-06-14T14:14:21;26.40;46.00
26342;DHT22;14054;50.108;8.640;2023-06-14T14:16:49;26.00;53.30
26342;DHT22;14054;50.108;8.640;2023-06-14T14:19:14;26.60;50.20
26342;DHT22;14054;50.108;8.640;2023-06-14T14:21:40;27.60;47.30
26342;DHT22;14054;50.108;8.640;2023-06-14T14:24:05;28.10;46.60
26342;DHT22;14054;50.108;8.640;2023-06-14T14:26:31;28.10;45.30
26342;DHT22;14054;50.108;8.640;2023-06-14T14:28:57;29.20;44.20
26342;DHT22;14054;50.108;8.640;2023-06-14T14:31:22;30.70;39.50
26342;DHT22;14054;50.108;8.640;2023-06-14T14:33:48;31.60;37.40
26342;DHT22;14054;50.108;8.640;2023-06-14T14:36:13;31.80;37.50
26342;DHT22;14054;50.108;8.640;2023-06-14T14:38:39;31.20;36.60
26342;DHT22;14054;50.108;8.640;2023-06-14T14:41:05;29.80;39.80
26342;DHT22;14054;50.108;8.640;2023-06-14T14:43:30;28.50;41.70
26342;DHT22;14054;50.108;8.640;2023-06-14T14:45:58;28.10;43.50
26342;DHT22;14054;50.108;8.640;2023-06-14T14:48:24;27.90;44.50
26342;DHT22;14054;50.108;8.640;2023-06-14T14:50:49;27.40;45.70
26342;DHT22;14054;50.108;8.640;2023-06-14T14:55:42;27.00;52.00
26342;DHT22;14054;50.108;8.640;2023-06-14T14:58:08;27.10;51.70
26342;DHT22;14054;50.108;8.640;2023-06-14T15:00:34;27.20;52.60
26342;DHT22;14054;50.108;8.640;2023-06-14T15:03:00;27.20;51.40
26342;DHT22;14054;50.108;8.640;2023-06-14T15:05:25;26.60;51.20
26342;DHT22;14054;50.108;8.640;2023-06-14T15:07:51;26.90;52.80
26342;DHT22;14054;50.108;8.640;2023-06-14T15:10:17;26.90;50.00
26342;DHT22;14054;50.108;8.640;2023-06-14T15:12:42;26.70;49.30
26342;DHT22;14054;50.108;8.640;2023-06-14T15:15:08;26.60;50.00
26342;DHT22;14054;50.108;8.640;2023-06-14T15:17:34;27.00;50.00
26342;DHT22;14054;50.108;8.640;2023-06-14T15:20:00;27.30;52.60
26342;DHT22;14054;50.108;8.640;2023-06-14T15:22:26;26.70;51.40
26342;DHT22;14054;50.108;8.640;2023-06-14T15:24:51;26.20;51.50
26342;DHT22;14054;50.108;8.640;2023-06-14T15:27:17;25.90;57.50
26342;DHT22;14054;50.108;8.640;2023-06-14T15:29:43;25.90;52.70
26342;DHT22;14054;50.108;8.640;2023-06-14T15:32:10;25.60;47.90
26342;DHT22;14054;50.108;8.640;2023-06-14T15:34:36;25.60;48.10
26342;DHT22;14054;50.108;8.640;2023-06-14T15:37:03;25.60;48.20
26342;DHT22;14054;50.108;8.640;2023-06-14T15:39:29;25.50;47.30
26342;DHT22;14054;50.108;8.640;2023-06-14T15:41:57;25.40;47.10
26342;DHT22;14054;50.108;8.640;2023-06-14T15:44:23;25.30;46.90
26342;DHT22;14054;50.108;8.640;2023-06-14T15:46:48;25.60;47.40
26342;DHT22;14054;50.108;8.640;2023-06-14T15:49:14;25.70;49.10
26342;DHT22;14054;50.108;8.640;2023-06-14T15:51:40;25.70;49.40
26342;DHT22;14054;50.108;8.640;2023-06-14T15:54:05;25.70;50.30
26342;DHT22;14054;50.108;8.640;2023-06-14T15:56:31;25.70;50.90
26342;DHT22;14054;50.108;8.640;2023-06-14T15:58:57;25.70;50.20
26342;DHT22;14054;50.108;8.640;2023-06-14T16:01:23;26.00;49.50
26342;DHT22;14054;50.108;8.640;2023-06-14T16:03:50;26.00;49.30
26342;DHT22;14054;50.108;8.640;2023-06-14T16:06:16;26.00;48.70
26342;DHT22;14054;50.108;8.640;2023-06-14T16:08:41;25.90;48.80
26342;DHT22;14054;50.108;8.640;2023-06-14T16:11:07;25.90;49.10
26342;DHT22;14054;50.108;8.640;2023-06-14T16:13:33;25.90;48.80
26342;DHT22;14054;50.108;8.640;2023-06-14T16:15:58;25.90;49.20
26342;DHT22;14054;50.108;8.640;2023-06-14T16:18:24;25.60;49.00
26342;DHT22;14054;50.108;8.640;2023-06-14T16:20:49;25.40;49.20
26342;DHT22;14054;50.108;8.640;2023-06-14T16:23:15;25.20;49.40
26342;DHT22;14054;50.108;8.640;2023-06-14T16:25:41;25.00;50.00
26342;DHT22;14054;50.108;8.640;2023-06-14T16:28:06;24.80;65.10
26342;DHT22;14054;50.108;8.640;2023-06-14T16:30:32;24.80;51.00
26342;DHT22;14054;50.108;8.640;2023-06-14T16:32:57;24.80;50.60
26342;DHT22;14054;50.108;8.640;2023-06-14T16:35:23;25.00;50.70
26342;DHT22;14054;50.108;8.640;2023-06-14T16:37:48;24.90;50.90
26342;DHT22;14054;50.108;8.640;2023-06-14T16:40:14;25.00;50.70
26342;DHT22;14054;50.108;8.640;2023-06-14T16:42:39;25.00;50.90
26342;DHT22;14054;50.108;8.640;2023-06-14T16:45:05;25.10;51.30
26342;DHT22;14054;50.108;8.640;2023-06-14T16:47:31;25.30;51.30
26342;DHT22;14054;50.108;8.640;2023-06-14T16:49:57;25.30;50.70
26342;DHT22;14054;50.108;8.640;2023-06-14T16:52:22;25.40;50.40
26342;DHT22;14054;50.108;8.640;2023-06-14T16:54:48;25.40;50.00
26342;DHT22;14054;50.108;8.640;2023-06-14T16:57:13;25.30;49.20
26342;DHT22;14054;50.108;8.640;2023-06-14T16:59:39;25.20;49.00
26342;DHT22;14054;50.108;8.640;2023-06-14T17:02:04;25.10;49.70
26342;DHT22;14054;50.108;8.640;2023-06-14T17:04:31;24.90;50.20
26342;DHT22;14054;50.108;8.640;2023-06-14T17:06:57;24.80;50.70
26342;DHT22;14054;50.108;8.640;2023-06-14T17:09:22;24.60;51.20
26342;DHT22;14054;50.108;8.640;2023-06-14T17:11:48;24.50;51.70
26342;DHT22;14054;50.108;8.640;2023-06-14T17:14:14;24.40;52.10
26342;DHT22;14054;50.108;8.640;2023-06-14T17:16:40;24.30;84.10
26342;DHT22;14054;50.108;8.640;2023-06-14T17:19:06;24.20;72.80
26342;DHT22;14054;50.108;8.640;2023-06-14T17:21:32;24.10;72.40
26342;DHT22;14054;50.108;8.640;2023-06-14T17:23:58;24.30;82.20
26342;DHT22;14054;50.108;8.640;2023-06-14T17:26:25;24.40;78.40
26342;DHT22;14054;50.108;8.640;2023-06-14T17:28:51;24.20;86.50
26342;DHT22;14054;50.108;8.640;2023-06-14T17:31:17;24.70;86.50
26342;DHT22;14054;50.108;8.640;2023-06-14T17:33:43;24.40;88.30
26342;DHT22;14054;50.108;8.640;2023-06-14T17:36:08;24.20;90.70
26342;DHT22;14054;50.108;8.640;2023-06-14T17:38:34;24.50;92.20
26342;DHT22;14054;50.108;8.640;2023-06-14T17:41:04;24.40;93.30
26342;DHT22;14054;50.108;8.640;2023-06-14T17:43:39;24.70;85.90
26342;DHT22;14054;50.108;8.640;2023-06-14T17:46:05;25.20;87.90
26342;DHT22;14054;50.108;8.640;2023-06-14T17:48:31;24.80;81.50
26342;DHT22;14054;50.108;8.640;2023-06-14T17:51:05;24.70;79.10
26342;DHT22;14054;50.108;8.640;2023-06-14T17:53:31;24.60;81.60
26342;DHT22;14054;50.108;8.640;2023-06-14T17:55:57;24.40;79.30
26342;DHT22;14054;50.108;8.640;2023-06-14T17:58:23;24.50;80.60
26342;DHT22;14054;50.108;8.640;2023-06-14T18:00:49;24.30;83.20
26342;DHT22;14054;50.108;8.640;2023-06-14T18:03:15;24.10;82.50
26342;DHT22;14054;50.108;8.640;2023-06-14T18:05:41;24.00;80.60
26342;DHT22;14054;50.108;8.640;2023-06-14T18:08:07;23.90;79.80
26342;DHT22;14054;50.108;8.640;2023-06-14T18:10:33;24.00;82.30
26342;DHT22;14054;50.108;8.640;2023-06-14T18:15:25;23.90;52.00
26342;DHT22;14054;50.108;8.640;2023-06-14T18:17:51;23.80;56.80
26342;DHT22;14054;50.108;8.640;2023-06-14T18:20:18;24.00;80.50
26342;DHT22;14054;50.108;8.640;2023-06-14T18:22:43;23.60;77.80
26342;DHT22;14054;50.108;8.640;2023-06-14T18:25:09;23.40;85.60
26342;DHT22;14054;50.108;8.640;2023-06-14T18:27:35;23.30;80.80
26342;DHT22;14054;50.108;8.640;2023-06-14T18:30:00;23.30;54.50
26342;DHT22;14054;50.108;8.640;2023-06-14T18:32:26;23.30;55.10
26342;DHT22;14054;50.108;8.640;2023-06-14T18:34:55;23.50;58.70
26342;DHT22;14054;50.108;8.640;2023-06-14T18:39:47;23.10;55.60
26342;DHT22;14054;50.108;8.640;2023-06-14T18:42:12;23.30;56.90
26342;DHT22;14054;50.108;8.640;2023-06-14T18:44:38;23.20;56.00
26342;DHT22;14054;50.108;8.640;2023-06-14T18:47:04;23.20;61.40
26342;DHT22;14054;50.108;8.640;2023-06-14T19:09:01;22.80;67.20